sensor_id;sensor_type;location;lat;lon;timestamp;P1;durP1;ratioP1;P2;durP2;ratioP2
11957;SDS011;6039;52.576;13.348;2023-02-13T00:03:33;9.30;;;4.37;;
11957;SDS011;6039;52.576;13.348;2023-02-13T00:08:39;4.60;;;2.70;;
11957;SDS011;6039;52.576;13.348;2023-02-13T00:13:43;9.17;;;3.13;;
11957;SDS011;6039;52.576;13.348;2023-02-13T00:18:47;5.43;;;2.80;;
11957;SDS011;6039;52.576;13.348;2023-02-13T00:23:54;5.00;;;2.73;;
11957;SDS011;6039;52.576;13.348;2023-02-13T00:28:58;3.97;;;2.27;;
11957;SDS011;6039;52.576;13.348;2023-02-13T00:34:02;5.47;;;1.80;;
11957;SDS011;6039;52.576;13.348;2023-02-13T00:39:08;4.43;;;2.23;;
11957;SDS011;6039;52.576;13.348;2023-02-13T00:44:13;5.03;;;2.07;;
11957;SDS011;6039;52.576;13.348;2023-02-13T00:49:17;3.90;;;1.93;;
11957;SDS011;6039;52.576;13.348;2023-02-13T00:54:24;4.13;;;1.90;;
11957;SDS011;6039;52.576;13.348;2023-02-13T00:59:28;5.10;;;1.83;;
11957;SDS011;6039;52.576;13.348;2023-02-13T01:04:32;3.93;;;1.70;;
11957;SDS011;6039;52.576;13.348;2023-02-13T01:09:38;2.77;;;1.80;;
11957;SDS011;6039;52.576;13.348;2023-02-13T01:14:43;3.03;;;1.53;;
11957;SDS011;6039;52.576;13.348;2023-02-13T01:19:47;2.77;;;1.40;;
11957;SDS011;6039;52.576;13.348;2023-02-13T01:24:53;3.70;;;1.60;;
11957;SDS011;6039;52.576;13.348;2023-02-13T01:29:57;2.37;;;1.43;;
11957;SDS011;6039;52.576;13.348;2023-02-13T01:35:01;1.80;;;1.40;;
11957;SDS011;6039;52.576;13.348;2023-02-13T01:40:09;3.07;;;1.50;;
11957;SDS011;6039;52.576;13.348;2023-02-13T01:45:21;3.00;;;1.57;;
11957;SDS011;6039;52.576;13.348;2023-02-13T01:50:28;2.30;;;1.30;;
11957;SDS011;6039;52.576;13.348;2023-02-13T01:55:40;2.60;;;1.30;;
11957;SDS011;6039;52.576;13.348;2023-02-13T02:00:47;2.00;;;1.60;;
11957;SDS011;6039;52.576;13.348;2023-02-13T02:05:51;3.07;;;1.73;;
11957;SDS011;6039;52.576;13.348;2023-02-13T02:11:02;4.20;;;2.13;;
11957;SDS011;6039;52.576;13.348;2023-02-13T02:16:09;3.13;;;1.63;;
11957;SDS011;6039;52.576;13.348;2023-02-13T02:27:02;2.90;;;1.90;;
11957;SDS011;6039;52.576;13.348;2023-02-13T02:32:24;3.90;;;1.83;;
11957;SDS011;6039;52.576;13.348;2023-02-13T02:37:47;4.73;;;2.53;;
11957;SDS011;6039;52.576;13.348;2023-02-13T02:43:12;4.97;;;2.23;;
11957;SDS011;6039;52.576;13.348;2023-02-13T02:48:25;7.40;;;2.80;;
11957;SDS011;6039;52.576;13.348;2023-02-13T02:53:46;4.10;;;2.40;;
11957;SDS011;6039;52.576;13.348;2023-02-13T02:58:57;3.67;;;2.30;;
11957;SDS011;6039;52.576;13.348;2023-02-13T03:04:35;4.20;;;2.47;;
11957;SDS011;6039;52.576;13.348;2023-02-13T03:09:55;3.83;;;2.20;;
11957;SDS011;6039;52.576;13.348;2023-02-13T03:15:12;4.47;;;2.30;;
11957;SDS011;6039;52.576;13.348;2023-02-13T03:20:22;4.63;;;2.60;;
11957;SDS011;6039;52.576;13.348;2023-02-13T03:25:57;4.43;;;2.63;;
11957;SDS011;6039;52.576;13.348;2023-02-13T03:31:12;5.33;;;2.63;;
11957;SDS011;6039;52.576;13.348;2023-02-13T03:36:25;4.97;;;2.80;;
11957;SDS011;6039;52.576;13.348;2023-02-13T03:41:52;3.50;;;2.30;;
11957;SDS011;6039;52.576;13.348;2023-02-13T03:47:00;6.20;;;3.20;;
11957;SDS011;6039;52.576;13.348;2023-02-13T03:52:09;4.90;;;2.80;;
11957;SDS011;6039;52.576;13.348;2023-02-13T03:57:18;6.30;;;3.33;;
11957;SDS011;6039;52.576;13.348;2023-02-13T04:02:36;7.67;;;3.40;;
11957;SDS011;6039;52.576;13.348;2023-02-13T04:07:47;8.77;;;3.33;;
11957;SDS011;6039;52.576;13.348;2023-02-13T04:12:52;8.57;;;3.40;;
11957;SDS011;6039;52.576;13.348;2023-02-13T04:18:01;5.60;;;3.23;;
11957;SDS011;6039;52.576;13.348;2023-02-13T04:23:10;6.63;;;3.77;;
11957;SDS011;6039;52.576;13.348;2023-02-13T04:28:14;6.23;;;3.20;;
11957;SDS011;6039;52.576;13.348;2023-02-13T04:33:18;6.73;;;3.77;;
11957;SDS011;6039;52.576;13.348;2023-02-13T04:38:25;7.20;;;3.90;;
11957;SDS011;6039;52.576;13.348;2023-02-13T04:43:29;8.07;;;4.57;;
11957;SDS011;6039;52.576;13.348;2023-02-13T04:48:32;9.63;;;4.80;;
11957;SDS011;6039;52.576;13.348;2023-02-13T04:53:39;10.67;;;4.73;;
11957;SDS011;6039;52.576;13.348;2023-02-13T04:58:43;8.83;;;4.33;;
11957;SDS011;6039;52.576;13.348;2023-02-13T05:03:47;7.63;;;4.60;;
11957;SDS011;6039;52.576;13.348;2023-02-13T05:08:53;9.37;;;4.43;;
11957;SDS011;6039;52.576;13.348;2023-02-13T05:13:57;7.23;;;4.03;;
11957;SDS011;6039;52.576;13.348;2023-02-13T05:19:01;8.50;;;4.43;;
11957;SDS011;6039;52.576;13.348;2023-02-13T05:24:08;7.63;;;3.40;;
11957;SDS011;6039;52.576;13.348;2023-02-13T05:29:12;5.83;;;3.47;;
11957;SDS011;6039;52.576;13.348;2023-02-13T05:34:24;6.63;;;4.00;;
11957;SDS011;6039;52.576;13.348;2023-02-13T05:39:32;6.53;;;3.80;;
11957;SDS011;6039;52.576;13.348;2023-02-13T05:44:36;6.70;;;3.77;;
11957;SDS011;6039;52.576;13.348;2023-02-13T05:49:40;5.97;;;3.63;;
11957;SDS011;6039;52.576;13.348;2023-02-13T05:54:46;6.77;;;3.63;;
11957;SDS011;6039;52.576;13.348;2023-02-13T05:59:50;6.60;;;3.63;;
11957;SDS011;6039;52.576;13.348;2023-02-13T06:04:54;7.50;;;3.77;;
11957;SDS011;6039;52.576;13.348;2023-02-13T06:10:00;6.87;;;3.40;;
11957;SDS011;6039;52.576;13.348;2023-02-13T06:15:05;11.87;;;3.80;;
11957;SDS011;6039;52.576;13.348;2023-02-13T06:20:10;6.33;;;3.47;;
11957;SDS011;6039;52.576;13.348;2023-02-13T06:25:16;6.20;;;3.80;;
11957;SDS011;6039;52.576;13.348;2023-02-13T06:30:21;6.43;;;3.63;;
11957;SDS011;6039;52.576;13.348;2023-02-13T06:35:24;8.50;;;3.43;;
11957;SDS011;6039;52.576;13.348;2023-02-13T06:40:31;8.23;;;3.97;;
11957;SDS011;6039;52.576;13.348;2023-02-13T06:45:35;9.47;;;4.17;;
11957;SDS011;6039;52.576;13.348;2023-02-13T06:50:39;6.43;;;3.70;;
11957;SDS011;6039;52.576;13.348;2023-02-13T06:55:46;7.57;;;3.97;;
11957;SDS011;6039;52.576;13.348;2023-02-13T07:00:50;7.47;;;3.80;;
11957;SDS011;6039;52.576;13.348;2023-02-13T07:05:55;8.47;;;3.53;;
11957;SDS011;6039;52.576;13.348;2023-02-13T07:11:01;7.37;;;4.07;;
11957;SDS011;6039;52.576;13.348;2023-02-13T07:16:05;6.00;;;3.90;;
11957;SDS011;6039;52.576;13.348;2023-02-13T07:21:09;8.07;;;4.23;;
11957;SDS011;6039;52.576;13.348;2023-02-13T07:26:16;5.33;;;3.80;;
11957;SDS011;6039;52.576;13.348;2023-02-13T07:31:20;7.10;;;4.43;;
11957;SDS011;6039;52.576;13.348;2023-02-13T07:36:24;9.63;;;4.43;;
11957;SDS011;6039;52.576;13.348;2023-02-13T07:41:31;7.50;;;3.90;;
11957;SDS011;6039;52.576;13.348;2023-02-13T07:46:35;5.73;;;3.33;;
11957;SDS011;6039;52.576;13.348;2023-02-13T07:51:39;8.73;;;3.80;;
11957;SDS011;6039;52.576;13.348;2023-02-13T07:56:45;5.80;;;3.80;;
11957;SDS011;6039;52.576;13.348;2023-02-13T08:01:49;4.97;;;3.27;;
11957;SDS011;6039;52.576;13.348;2023-02-13T08:06:53;7.27;;;3.87;;
11957;SDS011;6039;52.576;13.348;2023-02-13T08:12:00;7.87;;;3.70;;
11957;SDS011;6039;52.576;13.348;2023-02-13T08:17:04;5.37;;;3.50;;
11957;SDS011;6039;52.576;13.348;2023-02-13T08:22:08;5.50;;;3.33;;
11957;SDS011;6039;52.576;13.348;2023-02-13T08:27:14;6.53;;;3.80;;
11957;SDS011;6039;52.576;13.348;2023-02-13T08:32:18;8.77;;;3.53;;
11957;SDS011;6039;52.576;13.348;2023-02-13T08:37:22;6.70;;;3.53;;
11957;SDS011;6039;52.576;13.348;2023-02-13T08:42:29;6.87;;;3.67;;
11957;SDS011;6039;52.576;13.348;2023-02-13T08:47:33;5.63;;;3.00;;
11957;SDS011;6039;52.576;13.348;2023-02-13T08:52:36;5.97;;;3.43;;
11957;SDS011;6039;52.576;13.348;2023-02-13T08:57:43;6.13;;;3.17;;
11957;SDS011;6039;52.576;13.348;2023-02-13T09:02:47;6.37;;;3.67;;
11957;SDS011;6039;52.576;13.348;2023-02-13T09:07:51;5.93;;;3.50;;
11957;SDS011;6039;52.576;13.348;2023-02-13T09:13:00;7.77;;;4.00;;
11957;SDS011;6039;52.576;13.348;2023-02-13T09:18:04;5.87;;;3.50;;
11957;SDS011;6039;52.576;13.348;2023-02-13T09:23:08;7.23;;;3.73;;
11957;SDS011;6039;52.576;13.348;2023-02-13T09:28:14;7.73;;;3.90;;
11957;SDS011;6039;52.576;13.348;2023-02-13T09:33:18;6.87;;;3.90;;
11957;SDS011;6039;52.576;13.348;2023-02-13T09:38:22;7.43;;;4.00;;
11957;SDS011;6039;52.576;13.348;2023-02-13T09:43:30;9.57;;;3.90;;
11957;SDS011;6039;52.576;13.348;2023-02-13T09:48:37;7.67;;;3.60;;
11957;SDS011;6039;52.576;13.348;2023-02-13T09:53:45;5.80;;;3.30;;
11957;SDS011;6039;52.576;13.348;2023-02-13T09:58:56;7.80;;;4.13;;
11957;SDS011;6039;52.576;13.348;2023-02-13T10:09:32;8.87;;;4.60;;
11957;SDS011;6039;52.576;13.348;2023-02-13T10:14:46;9.10;;;5.03;;
11957;SDS011;6039;52.576;13.348;2023-02-13T10:19:55;8.70;;;4.53;;
11957;SDS011;6039;52.576;13.348;2023-02-13T10:25:03;11.40;;;4.30;;
11957;SDS011;6039;52.576;13.348;2023-02-13T10:35:25;7.47;;;3.90;;
11957;SDS011;6039;52.576;13.348;2023-02-13T10:40:31;8.73;;;4.40;;
11957;SDS011;6039;52.576;13.348;2023-02-13T10:45:48;7.43;;;4.73;;
11957;SDS011;6039;52.576;13.348;2023-02-13T10:50:59;9.20;;;4.43;;
11957;SDS011;6039;52.576;13.348;2023-02-13T10:56:07;11.67;;;4.77;;
11957;SDS011;6039;52.576;13.348;2023-02-13T11:01:20;8.97;;;4.40;;
11957;SDS011;6039;52.576;13.348;2023-02-13T11:06:30;7.93;;;4.70;;
11957;SDS011;6039;52.576;13.348;2023-02-13T11:11:37;10.10;;;4.93;;
11957;SDS011;6039;52.576;13.348;2023-02-13T11:16:52;9.60;;;4.77;;
11957;SDS011;6039;52.576;13.348;2023-02-13T11:21:59;9.13;;;5.20;;
11957;SDS011;6039;52.576;13.348;2023-02-13T11:27:05;10.47;;;5.30;;
11957;SDS011;6039;52.576;13.348;2023-02-13T11:32:21;9.53;;;5.23;;
11957;SDS011;6039;52.576;13.348;2023-02-13T11:37:26;10.63;;;5.93;;
11957;SDS011;6039;52.576;13.348;2023-02-13T11:42:33;11.13;;;5.83;;
11957;SDS011;6039;52.576;13.348;2023-02-13T11:47:41;10.43;;;5.50;;
11957;SDS011;6039;52.576;13.348;2023-02-13T11:52:49;10.03;;;5.80;;
11957;SDS011;6039;52.576;13.348;2023-02-13T11:57:56;10.00;;;6.03;;
11957;SDS011;6039;52.576;13.348;2023-02-13T12:03:08;14.90;;;6.57;;
11957;SDS011;6039;52.576;13.348;2023-02-13T12:08:27;11.30;;;6.17;;
11957;SDS011;6039;52.576;13.348;2023-02-13T12:13:33;14.17;;;6.20;;
11957;SDS011;6039;52.576;13.348;2023-02-13T12:18:41;11.40;;;6.17;;
11957;SDS011;6039;52.576;13.348;2023-02-13T12:23:48;14.87;;;6.70;;
11957;SDS011;6039;52.576;13.348;2023-02-13T12:29:03;11.70;;;6.47;;
11957;SDS011;6039;52.576;13.348;2023-02-13T12:39:59;10.87;;;5.80;;
11957;SDS011;6039;52.576;13.348;2023-02-13T12:45:15;12.67;;;6.30;;
11957;SDS011;6039;52.576;13.348;2023-02-13T12:56:00;11.87;;;5.97;;
11957;SDS011;6039;52.576;13.348;2023-02-13T13:01:16;11.87;;;6.27;;
11957;SDS011;6039;52.576;13.348;2023-02-13T13:06:32;9.13;;;5.40;;
11957;SDS011;6039;52.576;13.348;2023-02-13T13:11:53;12.67;;;6.73;;
11957;SDS011;6039;52.576;13.348;2023-02-13T13:17:07;12.47;;;6.50;;
11957;SDS011;6039;52.576;13.348;2023-02-13T13:22:20;15.30;;;7.03;;
11957;SDS011;6039;52.576;13.348;2023-02-13T13:27:29;12.17;;;6.23;;
11957;SDS011;6039;52.576;13.348;2023-02-13T13:32:35;13.93;;;6.87;;
11957;SDS011;6039;52.576;13.348;2023-02-13T13:37:42;10.67;;;5.67;;
11957;SDS011;6039;52.576;13.348;2023-02-13T13:43:02;14.17;;;7.20;;
11957;SDS011;6039;52.576;13.348;2023-02-13T13:48:14;11.30;;;5.67;;
11957;SDS011;6039;52.576;13.348;2023-02-13T13:53:26;11.20;;;6.03;;
11957;SDS011;6039;52.576;13.348;2023-02-13T13:58:31;11.00;;;6.07;;
11957;SDS011;6039;52.576;13.348;2023-02-13T14:03:45;13.23;;;6.40;;
11957;SDS011;6039;52.576;13.348;2023-02-13T14:08:56;11.70;;;5.83;;
11957;SDS011;6039;52.576;13.348;2023-02-13T14:14:04;9.60;;;5.73;;
11957;SDS011;6039;52.576;13.348;2023-02-13T14:19:57;10.60;;;6.33;;
11957;SDS011;6039;52.576;13.348;2023-02-13T14:25:03;9.70;;;5.40;;
11957;SDS011;6039;52.576;13.348;2023-02-13T14:30:22;11.57;;;6.43;;
11957;SDS011;6039;52.576;13.348;2023-02-13T14:35:32;9.87;;;5.50;;
11957;SDS011;6039;52.576;13.348;2023-02-13T14:45:51;10.90;;;5.97;;
11957;SDS011;6039;52.576;13.348;2023-02-13T14:50:59;11.23;;;6.20;;
11957;SDS011;6039;52.576;13.348;2023-02-13T14:56:04;11.60;;;6.13;;
11957;SDS011;6039;52.576;13.348;2023-02-13T15:01:15;9.93;;;6.00;;
11957;SDS011;6039;52.576;13.348;2023-02-13T15:06:29;12.57;;;5.83;;
11957;SDS011;6039;52.576;13.348;2023-02-13T15:11:36;11.90;;;6.07;;
11957;SDS011;6039;52.576;13.348;2023-02-13T15:16:41;13.33;;;5.90;;
11957;SDS011;6039;52.576;13.348;2023-02-13T15:21:53;11.83;;;6.20;;
11957;SDS011;6039;52.576;13.348;2023-02-13T15:26:59;12.63;;;5.90;;
11957;SDS011;6039;52.576;13.348;2023-02-13T15:32:16;12.17;;;6.80;;
11957;SDS011;6039;52.576;13.348;2023-02-13T15:37:24;12.30;;;6.20;;
11957;SDS011;6039;52.576;13.348;2023-02-13T15:42:38;11.90;;;6.63;;
11957;SDS011;6039;52.576;13.348;2023-02-13T15:47:43;12.53;;;6.00;;
11957;SDS011;6039;52.576;13.348;2023-02-13T15:52:50;11.90;;;6.53;;
11957;SDS011;6039;52.576;13.348;2023-02-13T15:57:54;12.37;;;6.53;;
11957;SDS011;6039;52.576;13.348;2023-02-13T16:03:01;13.07;;;6.57;;
11957;SDS011;6039;52.576;13.348;2023-02-13T16:13:49;15.00;;;6.73;;
11957;SDS011;6039;52.576;13.348;2023-02-13T16:19:02;15.07;;;7.43;;
11957;SDS011;6039;52.576;13.348;2023-02-13T16:24:12;12.83;;;6.73;;
11957;SDS011;6039;52.576;13.348;2023-02-13T16:29:18;12.47;;;6.37;;
11957;SDS011;6039;52.576;13.348;2023-02-13T16:34:25;13.80;;;7.00;;
11957;SDS011;6039;52.576;13.348;2023-02-13T16:39:33;14.70;;;7.13;;
11957;SDS011;6039;52.576;13.348;2023-02-13T16:44:37;13.53;;;6.67;;
11957;SDS011;6039;52.576;13.348;2023-02-13T16:49:41;15.90;;;6.97;;
11957;SDS011;6039;52.576;13.348;2023-02-13T16:54:48;13.43;;;7.20;;
11957;SDS011;6039;52.576;13.348;2023-02-13T16:59:59;15.03;;;7.57;;
11957;SDS011;6039;52.576;13.348;2023-02-13T17:05:16;13.43;;;6.93;;
11957;SDS011;6039;52.576;13.348;2023-02-13T17:10:26;12.97;;;7.27;;
11957;SDS011;6039;52.576;13.348;2023-02-13T17:15:32;13.40;;;6.70;;
11957;SDS011;6039;52.576;13.348;2023-02-13T17:20:37;16.93;;;8.20;;
11957;SDS011;6039;52.576;13.348;2023-02-13T17:25:47;16.17;;;7.30;;
11957;SDS011;6039;52.576;13.348;2023-02-13T17:30:52;16.17;;;7.30;;
11957;SDS011;6039;52.576;13.348;2023-02-13T17:35:57;14.33;;;6.93;;
11957;SDS011;6039;52.576;13.348;2023-02-13T17:41:04;11.80;;;6.60;;
11957;SDS011;6039;52.576;13.348;2023-02-13T17:46:10;15.20;;;7.50;;
11957;SDS011;6039;52.576;13.348;2023-02-13T17:51:15;13.87;;;7.00;;
11957;SDS011;6039;52.576;13.348;2023-02-13T17:56:22;14.33;;;7.37;;
11957;SDS011;6039;52.576;13.348;2023-02-13T18:01:26;15.73;;;7.37;;
11957;SDS011;6039;52.576;13.348;2023-02-13T18:06:30;14.60;;;7.43;;
11957;SDS011;6039;52.576;13.348;2023-02-13T18:11:37;15.77;;;7.23;;
11957;SDS011;6039;52.576;13.348;2023-02-13T18:16:41;15.77;;;7.83;;
11957;SDS011;6039;52.576;13.348;2023-02-13T18:21:45;18.03;;;8.63;;
11957;SDS011;6039;52.576;13.348;2023-02-13T18:26:52;17.00;;;7.80;;
11957;SDS011;6039;52.576;13.348;2023-02-13T18:31:56;14.90;;;8.27;;
11957;SDS011;6039;52.576;13.348;2023-02-13T18:37:00;18.30;;;8.60;;
11957;SDS011;6039;52.576;13.348;2023-02-13T18:42:07;15.37;;;7.67;;
11957;SDS011;6039;52.576;13.348;2023-02-13T18:47:12;15.40;;;7.17;;
11957;SDS011;6039;52.576;13.348;2023-02-13T18:52:16;17.30;;;8.17;;
11957;SDS011;6039;52.576;13.348;2023-02-13T18:57:23;16.77;;;9.43;;
11957;SDS011;6039;52.576;13.348;2023-02-13T19:02:27;13.47;;;7.60;;
11957;SDS011;6039;52.576;13.348;2023-02-13T19:07:32;20.57;;;8.30;;
11957;SDS011;6039;52.576;13.348;2023-02-13T19:12:38;14.80;;;7.40;;
11957;SDS011;6039;52.576;13.348;2023-02-13T19:17:43;18.23;;;8.87;;
11957;SDS011;6039;52.576;13.348;2023-02-13T19:22:47;19.87;;;9.13;;
11957;SDS011;6039;52.576;13.348;2023-02-13T19:27:53;18.10;;;8.43;;
11957;SDS011;6039;52.576;13.348;2023-02-13T19:32:57;18.87;;;9.20;;
11957;SDS011;6039;52.576;13.348;2023-02-13T19:38:01;17.67;;;8.63;;
11957;SDS011;6039;52.576;13.348;2023-02-13T19:43:08;19.27;;;9.17;;
11957;SDS011;6039;52.576;13.348;2023-02-13T19:48:12;18.30;;;8.70;;
11957;SDS011;6039;52.576;13.348;2023-02-13T19:53:16;18.90;;;9.57;;
11957;SDS011;6039;52.576;13.348;2023-02-13T19:58:23;18.30;;;8.67;;
11957;SDS011;6039;52.576;13.348;2023-02-13T20:03:27;17.73;;;9.17;;
11957;SDS011;6039;52.576;13.348;2023-02-13T20:08:31;20.37;;;9.10;;
11957;SDS011;6039;52.576;13.348;2023-02-13T20:13:38;19.50;;;8.83;;
11957;SDS011;6039;52.576;13.348;2023-02-13T20:18:42;18.43;;;8.27;;
11957;SDS011;6039;52.576;13.348;2023-02-13T20:23:47;17.23;;;8.47;;
11957;SDS011;6039;52.576;13.348;2023-02-13T20:28:54;22.33;;;9.23;;
11957;SDS011;6039;52.576;13.348;2023-02-13T20:33:59;20.60;;;8.97;;
11957;SDS011;6039;52.576;13.348;2023-02-13T20:39:05;20.63;;;9.30;;
11957;SDS011;6039;52.576;13.348;2023-02-13T20:44:12;23.23;;;9.53;;
11957;SDS011;6039;52.576;13.348;2023-02-13T20:49:16;19.40;;;8.67;;
11957;SDS011;6039;52.576;13.348;2023-02-13T20:54:20;18.90;;;8.53;;
11957;SDS011;6039;52.576;13.348;2023-02-13T20:59:27;17.67;;;8.50;;
11957;SDS011;6039;52.576;13.348;2023-02-13T21:04:31;16.40;;;7.53;;
11957;SDS011;6039;52.576;13.348;2023-02-13T21:09:35;16.00;;;8.10;;
11957;SDS011;6039;52.576;13.348;2023-02-13T21:14:42;22.13;;;8.77;;
11957;SDS011;6039;52.576;13.348;2023-02-13T21:19:46;22.07;;;10.00;;
11957;SDS011;6039;52.576;13.348;2023-02-13T21:24:50;21.17;;;9.57;;
11957;SDS011;6039;52.576;13.348;2023-02-13T21:29:57;20.90;;;9.87;;
11957;SDS011;6039;52.576;13.348;2023-02-13T21:35:01;21.07;;;9.77;;
11957;SDS011;6039;52.576;13.348;2023-02-13T21:40:06;20.00;;;8.87;;
11957;SDS011;6039;52.576;13.348;2023-02-13T21:45:13;20.60;;;8.87;;
11957;SDS011;6039;52.576;13.348;2023-02-13T21:50:18;20.53;;;9.40;;
11957;SDS011;6039;52.576;13.348;2023-02-13T21:55:22;18.53;;;8.60;;
11957;SDS011;6039;52.576;13.348;2023-02-13T22:00:30;18.47;;;8.90;;
11957;SDS011;6039;52.576;13.348;2023-02-13T22:05:34;17.67;;;7.67;;
11957;SDS011;6039;52.576;13.348;2023-02-13T22:10:38;22.07;;;9.67;;
11957;SDS011;6039;52.576;13.348;2023-02-13T22:15:45;17.17;;;8.80;;
11957;SDS011;6039;52.576;13.348;2023-02-13T22:20:49;18.03;;;9.33;;
11957;SDS011;6039;52.576;13.348;2023-02-13T22:25:53;20.80;;;10.03;;
11957;SDS011;6039;52.576;13.348;2023-02-13T22:31:00;18.93;;;8.83;;
11957;SDS011;6039;52.576;13.348;2023-02-13T22:36:10;20.57;;;8.90;;
11957;SDS011;6039;52.576;13.348;2023-02-13T22:41:15;17.83;;;8.53;;
11957;SDS011;6039;52.576;13.348;2023-02-13T22:46:22;18.27;;;8.63;;
11957;SDS011;6039;52.576;13.348;2023-02-13T22:51:28;21.57;;;8.83;;
11957;SDS011;6039;52.576;13.348;2023-02-13T22:56:33;20.30;;;8.60;;
11957;SDS011;6039;52.576;13.348;2023-02-13T23:01:39;16.93;;;7.50;;
11957;SDS011;6039;52.576;13.348;2023-02-13T23:06:43;19.83;;;8.73;;
11957;SDS011;6039;52.576;13.348;2023-02-13T23:11:47;18.53;;;8.67;;
11957;SDS011;6039;52.576;13.348;2023-02-13T23:17:12;20.20;;;8.20;;
11957;SDS011;6039;52.576;13.348;2023-02-13T23:22:28;19.57;;;8.33;;
11957;SDS011;6039;52.576;13.348;2023-02-13T23:27:33;18.03;;;8.37;;
11957;SDS011;6039;52.576;13.348;2023-02-13T23:32:40;19.60;;;8.23;;
11957;SDS011;6039;52.576;13.348;2023-02-13T23:37:45;19.47;;;8.03;;
11957;SDS011;6039;52.576;13.348;2023-02-13T23:42:49;19.43;;;8.57;;
11957;SDS011;6039;52.576;13.348;2023-02-13T23:47:55;14.97;;;6.93;;
11957;SDS011;6039;52.576;13.348;2023-02-13T23:52:59;18.57;;;7.53;;
11957;SDS011;6039;52.576;13.348;2023-02-13T23:58:03;16.90;;;8.60;;
